sensor_id;sensor_type;location;lat;lon;timestamp;pressure;altitude;pressure_sealevel;temperature;humidity
84884;BME280;75145;49.188;8.122;2024-01-15T00:00:38;98998.69;;;-3.17;80.69
84884;BME280;75145;49.188;8.122;2024-01-15T00:03:03;98990.13;;;-3.19;80.91
84884;BME280;75145;49.188;8.122;2024-01-15T00:05:29;99004.75;;;-3.18;80.90
84884;BME280;75145;49.188;8.122;2024-01-15T00:07:54;98999.53;;;-3.16;80.77
84884;BME280;75145;49.188;8.122;2024-01-15T00:10:19;99009.38;;;-3.03;80.20
84884;BME280;75145;49.188;8.122;2024-01-15T00:12:45;99015.31;;;-3.01;80.38
84884;BME280;75145;49.188;8.122;2024-01-15T00:15:10;98998.00;;;-2.99;80.17
84884;BME280;75145;49.188;8.122;2024-01-15T00:17:35;99004.06;;;-3.00;80.12
84884;BME280;75145;49.188;8.122;2024-01-15T00:20:01;99002.25;;;-2.98;80.06
84884;BME280;75145;49.188;8.122;2024-01-15T00:22:26;98995.28;;;-2.96;79.91
84884;BME280;75145;49.188;8.122;2024-01-15T00:24:52;98999.47;;;-2.91;80.56
84884;BME280;75145;49.188;8.122;2024-01-15T00:27:17;98980.50;;;-2.92;80.34
84884;BME280;75145;49.188;8.122;2024-01-15T00:29:43;98988.84;;;-2.85;80.07
84884;BME280;75145;49.188;8.122;2024-01-15T00:32:08;98987.31;;;-2.89;79.61
84884;BME280;75145;49.188;8.122;2024-01-15T00:34:34;98976.84;;;-2.86;79.99
84884;BME280;75145;49.188;8.122;2024-01-15T00:36:59;98965.84;;;-2.91;79.90
84884;BME280;75145;49.188;8.122;2024-01-15T00:39:24;98954.69;;;-2.93;79.95
84884;BME280;75145;49.188;8.122;2024-01-15T00:41:51;98964.53;;;-2.81;79.36
84884;BME280;75145;49.188;8.122;2024-01-15T00:44:16;98962.22;;;-2.87;79.80
84884;BME280;75145;49.188;8.122;2024-01-15T00:46:43;98979.41;;;-2.86;79.85
84884;BME280;75145;49.188;8.122;2024-01-15T00:49:09;98968.16;;;-2.85;79.54
84884;BME280;75145;49.188;8.122;2024-01-15T00:51:35;98957.81;;;-2.85;79.35
84884;BME280;75145;49.188;8.122;2024-01-15T00:54:00;98945.91;;;-2.89;79.49
84884;BME280;75145;49.188;8.122;2024-01-15T00:56:25;98952.44;;;-2.81;78.82
84884;BME280;75145;49.188;8.122;2024-01-15T00:58:51;98952.78;;;-2.88;79.56
84884;BME280;75145;49.188;8.122;2024-01-15T01:01:16;98952.66;;;-2.85;80.40
84884;BME280;75145;49.188;8.122;2024-01-15T01:03:41;98940.63;;;-2.86;79.43
84884;BME280;75145;49.188;8.122;2024-01-15T01:06:07;98947.59;;;-2.88;79.44
84884;BME280;75145;49.188;8.122;2024-01-15T01:08:32;98944.34;;;-2.93;79.96
84884;BME280;75145;49.188;8.122;2024-01-15T01:10:57;98949.63;;;-2.97;80.16
84884;BME280;75145;49.188;8.122;2024-01-15T01:13:23;98934.66;;;-2.88;80.18
84884;BME280;75145;49.188;8.122;2024-01-15T01:15:48;98934.41;;;-2.82;80.24
84884;BME280;75145;49.188;8.122;2024-01-15T01:18:13;98925.09;;;-2.86;79.80
84884;BME280;75145;49.188;8.122;2024-01-15T01:20:39;98927.97;;;-2.72;80.17
84884;BME280;75145;49.188;8.122;2024-01-15T01:23:04;98924.47;;;-2.71;79.53
84884;BME280;75145;49.188;8.122;2024-01-15T01:25:30;98925.16;;;-2.66;79.97
84884;BME280;75145;49.188;8.122;2024-01-15T01:27:55;98922.31;;;-2.60;79.20
84884;BME280;75145;49.188;8.122;2024-01-15T01:30:20;98924.34;;;-2.68;80.03
84884;BME280;75145;49.188;8.122;2024-01-15T01:32:46;98933.50;;;-2.59;79.41
84884;BME280;75145;49.188;8.122;2024-01-15T01:35:12;98914.53;;;-2.60;79.19
84884;BME280;75145;49.188;8.122;2024-01-15T01:37:38;98915.91;;;-2.51;79.51
84884;BME280;75145;49.188;8.122;2024-01-15T01:40:03;98924.59;;;-2.52;79.97
84884;BME280;75145;49.188;8.122;2024-01-15T01:42:29;98914.94;;;-2.49;79.24
84884;BME280;75145;49.188;8.122;2024-01-15T01:44:54;98917.25;;;-2.43;79.29
84884;BME280;75145;49.188;8.122;2024-01-15T01:47:20;98922.41;;;-2.41;79.37
84884;BME280;75145;49.188;8.122;2024-01-15T01:49:46;98923.94;;;-2.37;79.40
84884;BME280;75145;49.188;8.122;2024-01-15T01:52:11;98918.00;;;-2.39;78.47
84884;BME280;75145;49.188;8.122;2024-01-15T01:54:38;98911.31;;;-2.45;78.80
84884;BME280;75145;49.188;8.122;2024-01-15T01:57:05;98926.59;;;-2.39;79.21
84884;BME280;75145;49.188;8.122;2024-01-15T01:59:32;98918.44;;;-2.29;79.20
84884;BME280;75145;49.188;8.122;2024-01-15T02:02:00;98922.97;;;-2.34;79.24
84884;BME280;75145;49.188;8.122;2024-01-15T02:04:26;98933.19;;;-2.31;79.38
84884;BME280;75145;49.188;8.122;2024-01-15T02:06:51;98917.56;;;-2.28;78.51
84884;BME280;75145;49.188;8.122;2024-01-15T02:09:20;98916.81;;;-2.32;79.14
84884;BME280;75145;49.188;8.122;2024-01-15T02:11:48;98922.84;;;-2.31;79.04
84884;BME280;75145;49.188;8.122;2024-01-15T02:14:14;98917.66;;;-2.31;79.03
84884;BME280;75145;49.188;8.122;2024-01-15T02:16:39;98917.59;;;-2.30;79.33
84884;BME280;75145;49.188;8.122;2024-01-15T02:19:05;98919.34;;;-2.30;79.13
84884;BME280;75145;49.188;8.122;2024-01-15T02:21:31;98907.19;;;-2.28;78.77
84884;BME280;75145;49.188;8.122;2024-01-15T02:26:25;98912.88;;;-2.20;78.91
84884;BME280;75145;49.188;8.122;2024-01-15T02:28:51;98916.16;;;-2.17;78.67
84884;BME280;75145;49.188;8.122;2024-01-15T02:31:16;98914.38;;;-2.15;78.38
84884;BME280;75145;49.188;8.122;2024-01-15T02:33:42;98918.97;;;-2.21;79.09
84884;BME280;75145;49.188;8.122;2024-01-15T02:36:08;98918.72;;;-2.15;79.31
84884;BME280;75145;49.188;8.122;2024-01-15T02:38:33;98918.72;;;-2.15;78.81
84884;BME280;75145;49.188;8.122;2024-01-15T02:40:58;98919.66;;;-2.18;79.33
84884;BME280;75145;49.188;8.122;2024-01-15T02:43:24;98916.91;;;-2.13;78.74
84884;BME280;75145;49.188;8.122;2024-01-15T02:45:49;98923.81;;;-2.14;79.20
84884;BME280;75145;49.188;8.122;2024-01-15T02:48:15;98921.16;;;-2.12;79.46
84884;BME280;75145;49.188;8.122;2024-01-15T02:50:40;98919.41;;;-2.12;78.71
84884;BME280;75145;49.188;8.122;2024-01-15T02:53:05;98919.97;;;-2.05;78.93
84884;BME280;75145;49.188;8.122;2024-01-15T02:55:31;98921.66;;;-2.04;79.27
84884;BME280;75145;49.188;8.122;2024-01-15T02:57:56;98915.00;;;-2.10;79.15
84884;BME280;75145;49.188;8.122;2024-01-15T03:00:22;98918.44;;;-2.09;78.87
84884;BME280;75145;49.188;8.122;2024-01-15T03:02:47;98920.19;;;-2.10;78.79
84884;BME280;75145;49.188;8.122;2024-01-15T03:05:13;98922.56;;;-2.05;78.69
84884;BME280;75145;49.188;8.122;2024-01-15T03:07:38;98913.25;;;-2.09;78.78
84884;BME280;75145;49.188;8.122;2024-01-15T03:10:05;98915.78;;;-2.08;79.41
84884;BME280;75145;49.188;8.122;2024-01-15T03:12:31;98904.59;;;-2.08;78.82
84884;BME280;75145;49.188;8.122;2024-01-15T03:14:56;98912.09;;;-2.02;78.37
84884;BME280;75145;49.188;8.122;2024-01-15T03:17:22;98912.13;;;-2.03;79.13
84884;BME280;75145;49.188;8.122;2024-01-15T03:19:47;98922.25;;;-1.97;79.24
84884;BME280;75145;49.188;8.122;2024-01-15T03:22:15;98919.72;;;-1.99;78.84
84884;BME280;75145;49.188;8.122;2024-01-15T03:24:40;98929.81;;;-1.93;79.17
84884;BME280;75145;49.188;8.122;2024-01-15T03:27:05;98915.25;;;-1.95;79.50
84884;BME280;75145;49.188;8.122;2024-01-15T03:29:31;98921.88;;;-1.88;78.67
84884;BME280;75145;49.188;8.122;2024-01-15T03:31:56;98898.25;;;-2.01;79.44
84884;BME280;75145;49.188;8.122;2024-01-15T03:34:21;98910.00;;;-1.94;79.51
84884;BME280;75145;49.188;8.122;2024-01-15T03:36:46;98919.19;;;-1.87;78.64
84884;BME280;75145;49.188;8.122;2024-01-15T03:39:12;98905.88;;;-1.79;79.31
84884;BME280;75145;49.188;8.122;2024-01-15T03:41:37;98905.06;;;-1.80;79.21
84884;BME280;75145;49.188;8.122;2024-01-15T03:44:02;98901.97;;;-1.88;79.72
84884;BME280;75145;49.188;8.122;2024-01-15T03:46:28;98902.88;;;-1.89;79.41
84884;BME280;75145;49.188;8.122;2024-01-15T03:48:53;98915.31;;;-1.76;79.23
84884;BME280;75145;49.188;8.122;2024-01-15T03:51:19;98895.66;;;-1.82;78.70
84884;BME280;75145;49.188;8.122;2024-01-15T03:53:44;98892.25;;;-1.83;79.23
84884;BME280;75145;49.188;8.122;2024-01-15T03:56:10;98882.78;;;-1.84;79.64
84884;BME280;75145;49.188;8.122;2024-01-15T03:58:35;98872.28;;;-1.81;78.98
84884;BME280;75145;49.188;8.122;2024-01-15T04:01:00;98874.88;;;-1.81;78.82
84884;BME280;75145;49.188;8.122;2024-01-15T04:03:26;98860.44;;;-1.86;79.46
84884;BME280;75145;49.188;8.122;2024-01-15T04:05:51;98859.69;;;-1.88;79.52
84884;BME280;75145;49.188;8.122;2024-01-15T04:08:16;98845.25;;;-1.94;79.92
84884;BME280;75145;49.188;8.122;2024-01-15T04:10:42;98822.34;;;-2.03;79.81
84884;BME280;75145;49.188;8.122;2024-01-15T04:13:07;98814.84;;;-2.09;80.79
84884;BME280;75145;49.188;8.122;2024-01-15T04:15:32;98813.16;;;-2.10;80.45
84884;BME280;75145;49.188;8.122;2024-01-15T04:17:58;98817.09;;;-2.01;80.28
84884;BME280;75145;49.188;8.122;2024-01-15T04:20:23;98821.44;;;-2.02;80.50
84884;BME280;75145;49.188;8.122;2024-01-15T04:22:48;98822.16;;;-1.98;81.19
84884;BME280;75145;49.188;8.122;2024-01-15T04:25:14;98812.63;;;-1.98;80.74
84884;BME280;75145;49.188;8.122;2024-01-15T04:27:39;98822.50;;;-1.87;81.13
84884;BME280;75145;49.188;8.122;2024-01-15T04:30:05;98809.41;;;-1.84;81.04
84884;BME280;75145;49.188;8.122;2024-01-15T04:32:30;98816.94;;;-1.80;80.86
84884;BME280;75145;49.188;8.122;2024-01-15T04:34:56;98821.03;;;-1.74;80.98
84884;BME280;75145;49.188;8.122;2024-01-15T04:37:21;98831.31;;;-1.72;80.91
84884;BME280;75145;49.188;8.122;2024-01-15T04:39:46;98824.25;;;-1.69;80.61
84884;BME280;75145;49.188;8.122;2024-01-15T04:42:11;98831.94;;;-1.67;80.55
84884;BME280;75145;49.188;8.122;2024-01-15T04:44:37;98822.41;;;-1.67;80.53
84884;BME280;75145;49.188;8.122;2024-01-15T04:47:02;98839.53;;;-1.63;80.56
84884;BME280;75145;49.188;8.122;2024-01-15T04:49:28;98821.56;;;-1.67;80.46
84884;BME280;75145;49.188;8.122;2024-01-15T04:51:54;98823.13;;;-1.63;81.15
84884;BME280;75145;49.188;8.122;2024-01-15T04:54:19;98817.81;;;-1.60;81.22
84884;BME280;75145;49.188;8.122;2024-01-15T04:56:45;98809.25;;;-1.62;80.32
84884;BME280;75145;49.188;8.122;2024-01-15T04:59:11;98815.22;;;-1.60;80.18
84884;BME280;75145;49.188;8.122;2024-01-15T05:01:36;98812.19;;;-1.70;80.47
84884;BME280;75145;49.188;8.122;2024-01-15T05:04:01;98809.34;;;-1.64;80.38
84884;BME280;75145;49.188;8.122;2024-01-15T05:06:27;98815.28;;;-1.62;80.96
84884;BME280;75145;49.188;8.122;2024-01-15T05:08:52;98811.09;;;-1.64;80.46
84884;BME280;75145;49.188;8.122;2024-01-15T05:11:18;98803.31;;;-1.64;80.91
84884;BME280;75145;49.188;8.122;2024-01-15T05:13:43;98802.53;;;-1.66;81.24
84884;BME280;75145;49.188;8.122;2024-01-15T05:16:08;98797.22;;;-1.63;80.63
84884;BME280;75145;49.188;8.122;2024-01-15T05:18:34;98801.50;;;-1.62;80.67
84884;BME280;75145;49.188;8.122;2024-01-15T05:20:59;98795.53;;;-1.64;80.61
84884;BME280;75145;49.188;8.122;2024-01-15T05:23:24;98795.09;;;-1.55;81.49
84884;BME280;75145;49.188;8.122;2024-01-15T05:25:50;98793.41;;;-1.56;81.17
84884;BME280;75145;49.188;8.122;2024-01-15T05:28:15;98783.03;;;-1.56;80.94
84884;BME280;75145;49.188;8.122;2024-01-15T05:30:40;98789.78;;;-1.52;80.69
84884;BME280;75145;49.188;8.122;2024-01-15T05:33:06;98787.19;;;-1.52;81.03
84884;BME280;75145;49.188;8.122;2024-01-15T05:35:32;98798.16;;;-1.47;81.20
84884;BME280;75145;49.188;8.122;2024-01-15T05:37:58;98791.38;;;-1.50;80.82
84884;BME280;75145;49.188;8.122;2024-01-15T05:40:23;98795.34;;;-1.42;80.53
84884;BME280;75145;49.188;8.122;2024-01-15T05:42:48;98785.81;;;-1.42;80.73
84884;BME280;75145;49.188;8.122;2024-01-15T05:45:14;98790.03;;;-1.39;80.64
84884;BME280;75145;49.188;8.122;2024-01-15T05:47:39;98795.00;;;-1.35;80.71
84884;BME280;75145;49.188;8.122;2024-01-15T05:50:04;98793.34;;;-1.19;80.13
84884;BME280;75145;49.188;8.122;2024-01-15T05:52:30;98798.09;;;-1.09;79.29
84884;BME280;75145;49.188;8.122;2024-01-15T05:54:55;98787.25;;;-1.00;79.63
84884;BME280;75145;49.188;8.122;2024-01-15T05:57:20;98807.03;;;-0.98;79.36
84884;BME280;75145;49.188;8.122;2024-01-15T05:59:46;98789.69;;;-0.97;78.87
84884;BME280;75145;49.188;8.122;2024-01-15T06:02:11;98789.91;;;-1.02;79.31
84884;BME280;75145;49.188;8.122;2024-01-15T06:04:36;98799.31;;;-0.99;78.90
84884;BME280;75145;49.188;8.122;2024-01-15T06:07:02;98789.84;;;-1.00;79.17
84884;BME280;75145;49.188;8.122;2024-01-15T06:09:27;98787.94;;;-0.97;79.43
84884;BME280;75145;49.188;8.122;2024-01-15T06:11:53;98783.56;;;0.05;76.66
84884;BME280;75145;49.188;8.122;2024-01-15T06:14:19;98770.56;;;-0.44;77.18
84884;BME280;75145;49.188;8.122;2024-01-15T06:16:44;98782.38;;;-0.72;77.30
84884;BME280;75145;49.188;8.122;2024-01-15T06:19:09;98787.72;;;-0.75;77.71
84884;BME280;75145;49.188;8.122;2024-01-15T06:21:34;98805.09;;;-0.77;77.61
84884;BME280;75145;49.188;8.122;2024-01-15T06:24:00;98796.72;;;-0.82;78.31
84884;BME280;75145;49.188;8.122;2024-01-15T06:26:25;98800.22;;;-0.83;78.01
84884;BME280;75145;49.188;8.122;2024-01-15T06:28:50;98796.56;;;-0.79;78.08
84884;BME280;75145;49.188;8.122;2024-01-15T06:31:16;98806.94;;;-0.79;78.13
84884;BME280;75145;49.188;8.122;2024-01-15T06:33:41;98800.22;;;-0.83;78.62
84884;BME280;75145;49.188;8.122;2024-01-15T06:36:07;98808.69;;;-0.79;78.69
84884;BME280;75145;49.188;8.122;2024-01-15T06:38:32;98808.09;;;-0.84;78.82
84884;BME280;75145;49.188;8.122;2024-01-15T06:40:57;98800.22;;;-0.83;78.11
84884;BME280;75145;49.188;8.122;2024-01-15T06:43:23;98801.75;;;-0.79;78.47
84884;BME280;75145;49.188;8.122;2024-01-15T06:45:48;98807.66;;;-0.75;78.19
84884;BME280;75145;49.188;8.122;2024-01-15T06:48:13;98807.47;;;-0.72;78.24
84884;BME280;75145;49.188;8.122;2024-01-15T06:50:42;98805.66;;;-0.70;78.14
84884;BME280;75145;49.188;8.122;2024-01-15T06:53:08;98801.38;;;-0.71;78.43
84884;BME280;75145;49.188;8.122;2024-01-15T06:55:33;98801.97;;;-0.66;78.06
84884;BME280;75145;49.188;8.122;2024-01-15T06:57:58;98804.47;;;-0.65;78.17
84884;BME280;75145;49.188;8.122;2024-01-15T07:00:24;98807.16;;;-0.66;78.12
84884;BME280;75145;49.188;8.122;2024-01-15T07:02:49;98805.41;;;-0.66;77.84
84884;BME280;75145;49.188;8.122;2024-01-15T07:05:15;98797.31;;;-0.60;78.49
84884;BME280;75145;49.188;8.122;2024-01-15T07:07:40;98797.75;;;-0.51;78.01
84884;BME280;75145;49.188;8.122;2024-01-15T07:10:06;98813.41;;;-0.53;77.81
84884;BME280;75145;49.188;8.122;2024-01-15T07:12:32;98809.38;;;-0.58;78.25
84884;BME280;75145;49.188;8.122;2024-01-15T07:14:57;98805.88;;;-0.57;77.78
84884;BME280;75145;49.188;8.122;2024-01-15T07:17:23;98809.97;;;-0.53;77.72
84884;BME280;75145;49.188;8.122;2024-01-15T07:19:48;98810.13;;;-0.56;78.04
84884;BME280;75145;49.188;8.122;2024-01-15T07:22:14;98812.13;;;-0.62;78.79
84884;BME280;75145;49.188;8.122;2024-01-15T07:24:40;98808.00;;;-0.66;79.08
84884;BME280;75145;49.188;8.122;2024-01-15T07:27:05;98807.31;;;-0.69;79.04
84884;BME280;75145;49.188;8.122;2024-01-15T07:29:31;98815.66;;;-0.63;79.20
84884;BME280;75145;49.188;8.122;2024-01-15T07:31:58;98812.91;;;-0.60;79.14
84884;BME280;75145;49.188;8.122;2024-01-15T07:34:23;98807.53;;;-0.56;78.74
84884;BME280;75145;49.188;8.122;2024-01-15T07:36:49;98815.25;;;-0.55;79.98
84884;BME280;75145;49.188;8.122;2024-01-15T07:39:14;98807.03;;;-0.63;80.17
84884;BME280;75145;49.188;8.122;2024-01-15T07:41:39;98802.81;;;-0.66;79.52
84884;BME280;75145;49.188;8.122;2024-01-15T07:44:05;98796.88;;;-0.68;79.41
84884;BME280;75145;49.188;8.122;2024-01-15T07:46:30;98809.53;;;-0.62;80.15
84884;BME280;75145;49.188;8.122;2024-01-15T07:48:56;98798.06;;;-0.57;79.60
84884;BME280;75145;49.188;8.122;2024-01-15T07:51:23;98799.00;;;-0.58;78.97
84884;BME280;75145;49.188;8.122;2024-01-15T07:53:48;98814.50;;;-0.57;80.05
84884;BME280;75145;49.188;8.122;2024-01-15T07:56:14;98793.81;;;-0.58;79.93
84884;BME280;75145;49.188;8.122;2024-01-15T07:58:39;98815.47;;;-0.42;78.59
84884;BME280;75145;49.188;8.122;2024-01-15T08:01:04;98815.63;;;-0.45;79.65
84884;BME280;75145;49.188;8.122;2024-01-15T08:03:31;98813.81;;;-0.61;80.11
84884;BME280;75145;49.188;8.122;2024-01-15T08:05:56;98797.47;;;-0.63;79.83
84884;BME280;75145;49.188;8.122;2024-01-15T08:08:23;98800.75;;;-0.59;80.53
84884;BME280;75145;49.188;8.122;2024-01-15T08:10:49;98786.94;;;-0.60;80.30
84884;BME280;75145;49.188;8.122;2024-01-15T08:13:14;98808.47;;;-0.57;81.04
84884;BME280;75145;49.188;8.122;2024-01-15T08:15:41;98795.16;;;-0.51;80.46
84884;BME280;75145;49.188;8.122;2024-01-15T08:18:06;98799.47;;;-0.50;80.25
84884;BME280;75145;49.188;8.122;2024-01-15T08:20:31;98795.94;;;-0.49;80.02
84884;BME280;75145;49.188;8.122;2024-01-15T08:22:57;98812.28;;;-0.47;80.67
84884;BME280;75145;49.188;8.122;2024-01-15T08:25:22;98794.69;;;-0.42;79.72
84884;BME280;75145;49.188;8.122;2024-01-15T08:27:48;98795.44;;;-0.40;80.23
84884;BME280;75145;49.188;8.122;2024-01-15T08:30:13;98788.16;;;-0.49;80.60
84884;BME280;75145;49.188;8.122;2024-01-15T08:32:39;98800.06;;;-0.45;80.39
84884;BME280;75145;49.188;8.122;2024-01-15T08:35:08;98802.91;;;-0.50;81.04
84884;BME280;75145;49.188;8.122;2024-01-15T08:37:33;98805.25;;;-0.45;81.05
84884;BME280;75145;49.188;8.122;2024-01-15T08:39:59;98821.28;;;-0.37;81.03
84884;BME280;75145;49.188;8.122;2024-01-15T08:42:24;98815.00;;;-0.33;81.76
84884;BME280;75145;49.188;8.122;2024-01-15T08:44:50;98812.16;;;-0.28;81.06
84884;BME280;75145;49.188;8.122;2024-01-15T08:47:16;98804.63;;;-0.33;80.55
84884;BME280;75145;49.188;8.122;2024-01-15T08:49:41;98803.97;;;-0.21;81.58
84884;BME280;75145;49.188;8.122;2024-01-15T08:52:08;98805.66;;;-0.20;81.50
84884;BME280;75145;49.188;8.122;2024-01-15T08:54:33;98798.63;;;-0.18;80.63
84884;BME280;75145;49.188;8.122;2024-01-15T08:56:58;98808.69;;;-0.12;80.87
84884;BME280;75145;49.188;8.122;2024-01-15T08:59:24;98812.06;;;-0.10;81.44
84884;BME280;75145;49.188;8.122;2024-01-15T09:01:51;98812.63;;;-0.05;80.94
84884;BME280;75145;49.188;8.122;2024-01-15T09:04:17;98795.84;;;-0.15;82.16
84884;BME280;75145;49.188;8.122;2024-01-15T09:06:45;98814.72;;;-0.11;82.99
84884;BME280;75145;49.188;8.122;2024-01-15T09:09:12;98811.72;;;-0.04;83.30
84884;BME280;75145;49.188;8.122;2024-01-15T09:11:38;98811.88;;;-0.07;83.89
84884;BME280;75145;49.188;8.122;2024-01-15T09:14:03;98809.69;;;-0.14;85.03
84884;BME280;75145;49.188;8.122;2024-01-15T09:16:29;98816.03;;;-0.20;85.37
84884;BME280;75145;49.188;8.122;2024-01-15T09:18:54;98804.97;;;-0.23;86.02
84884;BME280;75145;49.188;8.122;2024-01-15T09:21:22;98798.78;;;-0.21;86.43
84884;BME280;75145;49.188;8.122;2024-01-15T09:23:47;98800.63;;;-0.23;86.24
84884;BME280;75145;49.188;8.122;2024-01-15T09:26:13;98799.09;;;-0.27;87.53
84884;BME280;75145;49.188;8.122;2024-01-15T09:28:38;98808.13;;;-0.34;86.98
84884;BME280;75145;49.188;8.122;2024-01-15T09:31:04;98805.75;;;-0.39;87.71
84884;BME280;75145;49.188;8.122;2024-01-15T09:33:29;98809.97;;;-0.36;87.63
84884;BME280;75145;49.188;8.122;2024-01-15T09:35:55;98792.72;;;-0.37;87.21
84884;BME280;75145;49.188;8.122;2024-01-15T09:38:20;98794.22;;;-0.33;87.45
84884;BME280;75145;49.188;8.122;2024-01-15T09:40:46;98788.41;;;-0.38;87.74
84884;BME280;75145;49.188;8.122;2024-01-15T09:43:12;98788.69;;;-0.27;87.79
84884;BME280;75145;49.188;8.122;2024-01-15T09:45:39;98788.56;;;-0.24;87.53
84884;BME280;75145;49.188;8.122;2024-01-15T09:48:05;98777.13;;;-0.37;87.91
84884;BME280;75145;49.188;8.122;2024-01-15T09:50:31;98778.31;;;-0.27;88.02
84884;BME280;75145;49.188;8.122;2024-01-15T09:52:57;98771.03;;;-0.36;89.05
84884;BME280;75145;49.188;8.122;2024-01-15T09:55:22;98765.56;;;-0.32;88.42
84884;BME280;75145;49.188;8.122;2024-01-15T09:57:49;98766.56;;;-0.34;88.53
84884;BME280;75145;49.188;8.122;2024-01-15T10:00:18;98776.78;;;-0.31;88.73
84884;BME280;75145;49.188;8.122;2024-01-15T10:02:43;98773.94;;;-0.26;89.05
84884;BME280;75145;49.188;8.122;2024-01-15T10:05:09;98768.69;;;-0.25;89.62
84884;BME280;75145;49.188;8.122;2024-01-15T10:07:36;98760.75;;;-0.22;88.94
84884;BME280;75145;49.188;8.122;2024-01-15T10:10:02;98761.41;;;-0.18;89.65
84884;BME280;75145;49.188;8.122;2024-01-15T10:12:33;98763.09;;;-0.17;90.31
84884;BME280;75145;49.188;8.122;2024-01-15T10:14:58;98753.88;;;-0.23;89.84
84884;BME280;75145;49.188;8.122;2024-01-15T10:17:24;98761.59;;;-0.06;89.40
84884;BME280;75145;49.188;8.122;2024-01-15T10:19:51;98762.78;;;-0.11;89.84
84884;BME280;75145;49.188;8.122;2024-01-15T10:22:16;98758.91;;;-0.04;89.29
84884;BME280;75145;49.188;8.122;2024-01-15T10:24:43;98754.63;;;-0.05;89.65
84884;BME280;75145;49.188;8.122;2024-01-15T10:27:09;98750.78;;;0.02;89.75
84884;BME280;75145;49.188;8.122;2024-01-15T10:29:35;98752.47;;;0.03;89.09
84884;BME280;75145;49.188;8.122;2024-01-15T10:32:02;98752.88;;;-0.05;89.27
84884;BME280;75145;49.188;8.122;2024-01-15T10:34:28;98751.19;;;-0.06;89.68
84884;BME280;75145;49.188;8.122;2024-01-15T10:36:54;98734.09;;;-0.10;89.80
84884;BME280;75145;49.188;8.122;2024-01-15T10:39:22;98745.75;;;-0.01;90.50
84884;BME280;75145;49.188;8.122;2024-01-15T10:41:49;98749.78;;;0.05;89.68
84884;BME280;75145;49.188;8.122;2024-01-15T10:44:14;98744.69;;;0.03;89.47
84884;BME280;75145;49.188;8.122;2024-01-15T10:46:40;98737.19;;;-0.03;90.13
84884;BME280;75145;49.188;8.122;2024-01-15T10:49:06;98735.13;;;0.04;91.22
84884;BME280;75145;49.188;8.122;2024-01-15T10:51:32;98738.47;;;0.06;90.71
84884;BME280;75145;49.188;8.122;2024-01-15T10:53:59;98726.72;;;-0.02;90.63
84884;BME280;75145;49.188;8.122;2024-01-15T10:56:25;98710.97;;;0.02;90.53
84884;BME280;75145;49.188;8.122;2024-01-15T10:58:54;98716.19;;;0.02;90.75
84884;BME280;75145;49.188;8.122;2024-01-15T11:01:20;98731.69;;;0.03;91.38
84884;BME280;75145;49.188;8.122;2024-01-15T11:03:46;98718.91;;;-0.02;90.75
84884;BME280;75145;49.188;8.122;2024-01-15T11:06:19;98728.25;;;0.03;90.91
84884;BME280;75145;49.188;8.122;2024-01-15T11:08:52;98706.09;;;-0.05;90.87
84884;BME280;75145;49.188;8.122;2024-01-15T11:11:18;98721.19;;;0.05;90.54
84884;BME280;75145;49.188;8.122;2024-01-15T11:13:45;98723.03;;;0.03;90.48
84884;BME280;75145;49.188;8.122;2024-01-15T11:16:13;98719.44;;;0.05;90.19
84884;BME280;75145;49.188;8.122;2024-01-15T11:18:43;98726.72;;;-0.02;90.78
84884;BME280;75145;49.188;8.122;2024-01-15T11:23:43;98729.47;;;0.11;90.10
84884;BME280;75145;49.188;8.122;2024-01-15T11:26:30;98708.94;;;0.07;90.28
84884;BME280;75145;49.188;8.122;2024-01-15T11:28:56;98716.44;;;0.13;90.52
84884;BME280;75145;49.188;8.122;2024-01-15T11:34:10;98711.72;;;0.19;89.64
84884;BME280;75145;49.188;8.122;2024-01-15T11:42:03;98723.81;;;0.50;88.41
84884;BME280;75145;49.188;8.122;2024-01-15T11:44:29;98722.81;;;0.69;86.42
84884;BME280;75145;49.188;8.122;2024-01-15T11:52:32;98725.09;;;0.89;84.91
84884;BME280;75145;49.188;8.122;2024-01-15T11:55:22;98723.06;;;0.94;84.61
84884;BME280;75145;49.188;8.122;2024-01-15T11:57:52;98721.28;;;0.95;85.60
84884;BME280;75145;49.188;8.122;2024-01-15T12:00:19;98722.53;;;1.03;84.73
84884;BME280;75145;49.188;8.122;2024-01-15T12:02:46;98716.41;;;1.04;85.02
84884;BME280;75145;49.188;8.122;2024-01-15T12:05:14;98723.66;;;1.13;84.56
84884;BME280;75145;49.188;8.122;2024-01-15T12:07:41;98719.56;;;1.09;85.72
84884;BME280;75145;49.188;8.122;2024-01-15T12:10:20;98723.84;;;1.10;85.69
84884;BME280;75145;49.188;8.122;2024-01-15T12:13:00;98716.75;;;1.12;85.53
84884;BME280;75145;49.188;8.122;2024-01-15T12:15:27;98716.41;;;1.18;85.19
84884;BME280;75145;49.188;8.122;2024-01-15T12:17:58;98721.63;;;1.18;84.45
84884;BME280;75145;49.188;8.122;2024-01-15T12:20:25;98694.09;;;1.14;84.74
84884;BME280;75145;49.188;8.122;2024-01-15T12:22:53;98693.72;;;1.21;84.02
84884;BME280;75145;49.188;8.122;2024-01-15T12:25:20;98700.78;;;1.18;84.15
84884;BME280;75145;49.188;8.122;2024-01-15T12:27:46;98696.88;;;1.26;83.00
84884;BME280;75145;49.188;8.122;2024-01-15T12:30:13;98698.19;;;1.33;82.47
84884;BME280;75145;49.188;8.122;2024-01-15T12:32:40;98683.22;;;1.36;81.92
84884;BME280;75145;49.188;8.122;2024-01-15T12:35:06;98694.13;;;1.43;82.31
84884;BME280;75145;49.188;8.122;2024-01-15T12:37:31;98680.16;;;1.44;82.12
84884;BME280;75145;49.188;8.122;2024-01-15T12:39:58;98696.91;;;1.54;81.41
84884;BME280;75145;49.188;8.122;2024-01-15T12:42:24;98686.50;;;1.54;80.59
84884;BME280;75145;49.188;8.122;2024-01-15T12:44:49;98701.09;;;1.57;80.56
84884;BME280;75145;49.188;8.122;2024-01-15T12:47:15;98694.56;;;1.64;79.69
84884;BME280;75145;49.188;8.122;2024-01-15T12:49:43;98693.16;;;1.72;78.68
84884;BME280;75145;49.188;8.122;2024-01-15T12:52:11;98692.44;;;1.70;78.23
84884;BME280;75145;49.188;8.122;2024-01-15T12:54:36;98694.38;;;1.81;78.38
84884;BME280;75145;49.188;8.122;2024-01-15T12:57:02;98708.41;;;1.93;78.32
84884;BME280;75145;49.188;8.122;2024-01-15T12:59:27;98709.66;;;2.14;76.88
84884;BME280;75145;49.188;8.122;2024-01-15T13:01:53;98727.66;;;2.46;75.74
84884;BME280;75145;49.188;8.122;2024-01-15T13:04:22;98717.16;;;2.60;75.02
84884;BME280;75145;49.188;8.122;2024-01-15T13:06:49;98726.81;;;2.72;73.86
84884;BME280;75145;49.188;8.122;2024-01-15T13:09:15;98741.78;;;2.56;73.95
84884;BME280;75145;49.188;8.122;2024-01-15T13:11:40;98733.75;;;2.59;74.32
84884;BME280;75145;49.188;8.122;2024-01-15T13:14:06;98731.31;;;2.43;74.53